Portada
METAR-TAF:

METAR-TAF

Aeropuertos :

Ondangua, Namibia

latitud: 17-52-42S, longitud: 015-57-09E, altitud: 1096 m

Observación

El informe se hizo hace 1 hora y 18 minutos, a las 06:00 UTC
Viento 3 kt del este-noreste
Temperatura 12°C
Humedad 35%
Presión 1020 hPa
Visibilidad 10 km o más
sin nubes por debajo de 1500 m y sin presencia de cumulonimbus.

METAR: FYOA 200600Z 06003KT CAVOK 12/M03 Q1020

Hora: 09:18 (07:18 UTC)

Pronóstico

El informe se hizo hace 2 horas y 18 minutos, a las 05:00 UTC
Pronóstico válido del 20 a las 06 UTC al 20 a las 15 UTC
Viento 3 kt del este-noreste
Visibilidad 10 km o más
sin nubes por debajo de 1500 m y sin presencia de cumulonimbus.
Evolucionando progresivamente
del 20 a las 08 UTC al 20 a las 10 UTC
Viento 10 kt del este con ráfagas de 20 kt

TAF: FYOA 200500Z 2006/2015 06003KT CAVOK BECMG 2008/2010 08010G20KT

Observaciones y pronósticos meteorológicos de más de 4000 aeropuertos (mensajes METAR y TAF).

Los puntos amarillos y rojos representan las estaciones disponibles.

Ponga el ratón en el punto deseado para ver el nombre de la estación.

Haga clic para ver las observaciones y los pronósticos meteorológicos.

Para cambiar el mapa : haga clic en los botones verdes con una cruz de color negro para hacer un zoom, en el botón verde con un guión para alejar o en las flechas verdes para mapas adyacentes.


METAR-TAF: